.
WxDataArchive / Data Records for 2006-07-23
2006-07-22 July 2006 2006-07-24

Data Records for Sunday, 23 July 2006

Time	Temp	Chill	HIndex	Humid	Dewpt	 Wind 	HiWind	WindDir	Rain 	Barom 
-----	----	-----	------	-----	-----	------	------	-------	-----	----- 
00:00	64.2	64.2	64.2	76	56.5	0	0	---	0.00	29.909 
00:05	64.0	64.0	64.0	76	56.3	0	0	---	0.00	29.909 
00:10	63.9	63.9	63.9	76	56.2	0	0	---	0.00	29.909 
00:15	63.7	63.7	63.7	77	56.3	0	0	---	0.00	29.909 
00:20	63.7	63.7	63.7	77	56.3	0	0	---	0.00	29.909 
00:25	63.7	63.7	63.7	77	56.3	0	0	---	0.00	29.909 
00:30	63.7	63.7	63.7	77	56.3	0	0	---	0.00	29.910 
00:35	63.7	63.7	63.7	77	56.3	0	0	---	0.00	29.910 
00:40	63.5	63.5	63.5	78	56.5	0	0	---	0.00	29.910 
00:45	63.5	63.5	63.5	78	56.5	0	0	---	0.00	29.912 
00:50	63.5	63.5	63.5	78	56.5	0	0	---	0.00	29.912 
00:55	63.5	63.5	63.5	79	56.9	0	0	---	0.00	29.912 
01:00	63.4	63.4	63.4	79	56.8	0	0	---	0.00	29.913 
01:05	63.2	63.2	63.2	80	56.9	0	0	---	0.00	29.913 
01:10	63.2	63.2	63.2	81	57.3	0	0	---	0.00	29.913 
01:15	63.1	63.1	63.1	81	57.2	0	0	---	0.00	29.912 
01:20	62.9	62.9	62.9	82	57.3	0	0	---	0.00	29.912 
01:25	62.9	62.9	62.9	82	57.3	0	0	---	0.00	29.912 
01:30	62.9	62.9	62.9	82	57.3	0	1	270	0.00	29.912 
01:35	62.9	62.9	62.9	83	57.7	0	0	---	0.00	29.912 
01:40	62.9	62.9	62.9	83	57.7	0	1	270	0.00	29.912 
01:45	63.1	63.1	63.1	83	57.8	0	1	270	0.00	29.911 
01:50	62.9	62.9	62.9	83	57.7	0	0	---	0.00	29.911 
01:55	62.7	62.7	62.7	84	57.8	0	0	---	0.00	29.911 
02:00	62.6	62.6	62.6	84	57.7	0	0	---	0.00	29.904 
02:05	62.4	62.4	62.4	84	57.5	0	0	---	0.00	29.904 
02:10	62.4	62.4	62.4	84	57.5	0	0	---	0.00	29.904 
02:15	62.1	62.1	62.1	84	57.2	0	0	---	0.00	29.901 
02:20	62.0	62.0	62.0	85	57.4	0	0	---	0.00	29.901 
02:25	61.6	61.6	61.6	85	57.0	0	0	---	0.00	29.901 
02:30	61.5	61.5	61.5	85	56.9	0	0	---	0.00	29.899 
02:35	61.2	61.2	61.2	86	57.0	0	0	---	0.00	29.899 
02:40	61.0	61.0	61.0	86	56.8	0	0	---	0.00	29.899 
02:45	60.9	60.9	60.9	87	57.0	0	0	---	0.00	29.898 
02:50	60.5	60.5	60.5	88	56.9	0	0	---	0.00	29.898 
02:55	60.4	60.4	60.4	88	56.8	0	0	---	0.00	29.898 
03:00	60.1	60.1	60.1	89	56.8	0	0	---	0.00	29.899 
03:05	59.9	59.9	59.9	89	56.6	0	0	---	0.00	29.899 
03:10	59.8	59.8	59.8	90	56.9	0	0	---	0.00	29.899 
03:15	59.6	59.6	59.6	90	56.7	0	0	---	0.00	29.897 
03:20	59.5	59.5	59.5	90	56.6	0	0	---	0.00	29.897 
03:25	59.3	59.3	59.3	90	56.4	0	0	---	0.00	29.897 
03:30	59.3	59.3	59.3	91	56.7	0	1	270	0.00	29.899 
03:35	59.3	59.3	59.3	91	56.7	0	0	---	0.00	29.899 
03:40	59.2	59.2	59.2	91	56.6	0	0	---	0.00	29.899 
03:45	59.0	59.0	59.0	92	56.7	0	0	---	0.00	29.894 
03:50	59.0	59.0	59.0	92	56.7	0	0	---	0.00	29.894 
03:55	58.9	58.9	58.9	91	56.3	0	0	---	0.00	29.894 
04:00	58.7	58.7	58.7	91	56.1	0	0	---	0.00	29.895 
04:05	58.6	58.6	58.6	92	56.3	0	0	---	0.00	29.895 
04:10	58.4	58.4	58.4	92	56.1	0	0	---	0.00	29.895 
04:15	58.4	58.4	58.4	92	56.1	0	0	---	0.00	29.898 
04:20	58.3	58.3	58.3	92	56.0	0	0	---	0.00	29.898 
04:25	58.4	58.4	58.4	93	56.4	0	0	---	0.00	29.898 
04:30	58.3	58.3	58.3	93	56.3	0	0	---	0.00	29.900 
04:35	58.3	58.3	58.3	93	56.3	0	0	---	0.00	29.900 
04:40	58.4	58.4	58.4	93	56.4	0	0	---	0.00	29.900 
04:45	58.6	58.6	58.6	93	56.6	0	0	---	0.00	29.902 
04:50	58.7	58.7	58.7	93	56.7	0	0	---	0.00	29.902 
04:55	58.9	58.9	58.9	94	57.2	0	0	---	0.00	29.902 
05:00	59.0	59.0	59.0	94	57.3	0	0	---	0.00	29.901 
05:05	59.0	59.0	59.0	93	57.0	0	0	---	0.00	29.901 
05:10	58.9	58.9	58.9	93	56.9	0	0	---	0.00	29.901 
05:15	58.7	58.7	58.7	93	56.7	0	0	---	0.00	29.902 
05:20	58.7	58.7	58.7	93	56.7	0	0	---	0.00	29.902 
05:25	58.6	58.6	58.6	93	56.6	0	0	---	0.00	29.902 
05:30	58.6	58.6	58.6	93	56.6	0	0	---	0.00	29.903 
05:35	58.4	58.4	58.4	93	56.4	0	0	---	0.00	29.903 
05:40	58.4	58.4	58.4	93	56.4	0	0	---	0.00	29.903 
05:45	58.4	58.4	58.4	93	56.4	0	0	---	0.00	29.906 
05:50	58.4	58.4	58.4	94	56.7	0	0	---	0.00	29.906 
05:55	58.3	58.3	58.3	94	56.6	0	0	---	0.00	29.906 
06:00	58.3	58.3	58.3	94	56.6	0	0	---	0.00	29.906 
06:05	58.1	58.1	58.1	94	56.4	0	0	---	0.00	29.906 
06:10	58.1	58.1	58.1	94	56.4	0	0	---	0.00	29.906 
06:15	58.0	58.0	58.0	94	56.3	0	0	---	0.00	29.913 
06:20	58.0	58.0	58.0	94	56.3	0	0	---	0.00	29.913 
06:25	58.0	58.0	58.0	94	56.3	0	0	---	0.00	29.913 
06:30	58.0	58.0	58.0	94	56.3	0	0	---	0.00	29.918 
06:35	58.0	58.0	58.0	94	56.3	0	0	---	0.00	29.918 
06:40	58.0	58.0	58.0	94	56.3	0	0	---	0.00	29.918 
06:45	58.1	58.1	58.1	94	56.4	0	0	---	0.00	29.920 
06:50	58.1	58.1	58.1	94	56.4	0	0	---	0.00	29.920 
06:55	58.1	58.1	58.1	95	56.7	0	0	---	0.00	29.920 
07:00	58.3	58.3	58.3	95	56.9	0	0	---	0.00	29.923 
07:05	58.3	58.3	58.3	95	56.9	0	0	---	0.00	29.923 
07:10	58.3	58.3	58.3	95	56.9	0	0	---	0.00	29.923 
07:15	58.3	58.3	58.3	95	56.9	0	0	---	0.00	29.930 
07:20	58.4	58.4	58.4	95	57.0	0	0	---	0.00	29.930 
07:25	58.9	58.9	58.9	95	57.5	0	0	---	0.00	29.930 
07:30	59.3	59.3	59.3	95	57.9	0	0	---	0.00	29.931 
07:35	59.8	59.8	59.8	95	58.4	0	0	---	0.00	29.931 
07:40	60.2	60.2	60.2	95	58.8	0	0	---	0.00	29.931 
07:45	60.7	60.7	60.7	95	59.3	0	0	---	0.00	29.930 
07:50	61.2	61.2	61.2	94	59.5	0	0	---	0.00	29.930 
07:55	62.0	62.0	62.0	92	59.6	0	0	---	0.00	29.930 
08:00	62.6	62.6	62.6	89	59.3	0	1	270	0.00	29.929 
08:05	63.1	63.1	63.1	87	59.2	0	1	270	0.00	29.929 
08:10	63.9	63.9	63.9	86	59.6	0	0	---	0.00	29.929 
08:15	64.5	64.5	64.5	84	59.6	0	2	270	0.00	29.931 
08:20	65.0	65.0	65.0	83	59.7	0	1	270	0.00	29.931 
08:25	66.0	66.0	66.0	81	60.0	0	2	270	0.00	29.931 
08:30	67.3	67.3	67.3	79	60.6	0	2	270	0.00	29.930 
08:35	68.1	68.1	68.1	77	60.6	0	1	270	0.00	29.930 
08:40	68.4	68.4	68.4	75	60.2	0	1	270	0.00	29.930 
08:45	69.1	69.1	69.1	74	60.5	0	2	270	0.00	29.930 
08:50	70.1	70.1	70.1	73	61.0	0	2	270	0.00	29.930 
08:55	70.1	70.1	70.1	72	60.6	0	1	270	0.00	29.930 
09:00	70.4	70.4	70.4	73	61.3	0	1	270	0.00	29.929 
09:05	70.9	70.9	70.9	70	60.6	0	2	270	0.00	29.929 
09:10	70.9	70.9	70.9	70	60.6	0	1	292	0.00	29.929 
09:15	71.1	71.1	71.1	69	60.4	0	1	292	0.00	29.933 
09:20	71.3	71.3	71.3	70	61.0	0	1	292	0.00	29.933 
09:25	71.8	71.8	71.8	69	61.1	0	1	292	0.00	29.933 
09:30	71.8	71.8	71.8	72	62.3	0	2	292	0.00	29.934 
09:35	72.5	72.5	72.5	69	61.7	0	2	292	0.00	29.934 
09:40	73.2	73.2	73.2	67	61.6	0	2	338	0.00	29.934 
09:45	73.3	73.3	73.3	70	62.9	1	2	338	0.00	29.936 
09:50	73.5	73.5	73.5	67	61.9	1	2	338	0.00	29.936 
09:55	73.9	73.9	73.9	66	61.8	1	2	315	0.00	29.936 
10:00	73.7	73.7	73.7	64	60.7	1	3	270	0.00	29.934 
10:05	73.7	73.7	73.7	65	61.2	1	4	292	0.00	29.934 
10:10	73.9	73.9	73.9	66	61.8	1	3	248	0.00	29.934 
10:15	74.0	74.0	74.0	62	60.1	1	2	292	0.00	29.935 
10:20	74.2	74.2	74.2	60	59.4	1	3	315	0.00	29.935 
10:25	74.4	74.4	74.4	58	58.6	1	3	292	0.00	29.935 
10:30	74.6	74.6	74.6	58	58.8	2	4	270	0.00	29.936 
10:35	75.1	75.1	77.5	58	59.3	1	3	292	0.00	29.936 
10:40	75.4	75.4	77.8	53	57.1	2	3	248	0.00	29.936 
10:45	75.6	75.6	77.9	52	56.7	1	3	292	0.00	29.934 
10:50	76.0	76.0	78.1	53	57.6	1	3	248	0.00	29.934 
10:55	76.0	76.0	78.1	51	56.5	1	4	315	0.00	29.934 
11:00	76.0	76.0	78.1	53	57.6	1	3	315	0.00	29.937 
11:05	76.5	76.5	78.4	55	59.1	1	3	315	0.00	29.937 
11:10	76.8	76.8	78.5	52	57.8	1	4	292	0.00	29.937 
11:15	76.7	76.7	78.4	49	56.1	1	3	338	0.00	29.945 
11:20	76.8	76.8	78.5	50	56.7	1	3	338	0.00	29.945 
11:25	77.0	77.0	78.7	53	58.5	1	2	315	0.00	29.945 
11:30	77.6	77.6	78.9	49	56.9	0	2	315	0.00	29.942 
11:35	77.7	77.7	78.9	46	55.2	1	3	338	0.00	29.942 
11:40	77.4	77.4	78.7	47	55.6	1	3	292	0.00	29.942 
11:45	77.6	77.6	78.9	48	56.3	2	5	270	0.00	29.942 
11:50	77.9	77.9	79.1	48	56.6	1	3	248	0.00	29.942 
11:55	78.3	78.3	79.2	45	55.2	1	4	248	0.00	29.942 
12:00	78.6	78.6	79.4	46	56.1	1	3	22	0.00	29.940 
12:05	78.5	78.5	79.5	48	57.2	1	3	0	0.00	29.940 
12:10	78.6	78.6	79.7	51	58.9	1	3	292	0.00	29.940 
12:15	79.2	79.2	80.0	48	57.8	1	4	45	0.00	29.937 
12:20	79.2	79.2	79.8	46	56.6	1	4	315	0.00	29.937 
12:25	78.8	78.8	79.8	50	58.6	1	3	315	0.00	29.937 
12:30	78.8	78.8	79.6	47	56.8	1	4	248	0.00	29.938 
12:35	79.0	79.0	79.7	46	56.4	1	4	315	0.00	29.938 
12:40	79.4	79.4	80.1	48	58.0	2	5	270	0.00	29.938 
12:45	79.6	79.6	80.1	46	57.0	1	4	270	0.00	29.937 
12:50	79.6	79.6	80.0	45	56.4	2	4	292	0.00	29.937 
12:55	79.8	79.8	80.3	46	57.2	1	4	270	0.00	29.937 
13:00	79.6	79.6	80.2	47	57.6	1	3	270	0.00	29.941 
13:05	79.8	79.8	80.4	47	57.8	1	3	292	0.00	29.941 
13:10	79.9	79.9	80.4	47	57.8	2	4	270	0.00	29.941 
13:15	80.5	80.5	81.2	49	59.6	1	5	68	0.00	29.939 
13:20	80.7	80.7	81.0	46	58.0	2	4	270	0.00	29.939 
13:25	80.9	80.9	81.2	46	58.2	1	3	315	0.00	29.939 
13:30	80.3	80.3	80.5	44	56.4	1	2	315	0.00	29.935 
13:35	79.0	79.0	79.8	47	57.0	1	3	315	0.00	29.935 
13:40	79.9	79.9	80.9	52	60.7	1	3	270	0.00	29.935 
13:45	80.5	80.5	80.8	46	57.8	1	3	292	0.00	29.930 
13:50	80.7	80.7	81.2	48	59.2	0	2	22	0.00	29.930 
13:55	80.3	80.3	80.8	47	58.2	1	5	248	0.00	29.930 
14:00	79.9	79.9	80.2	44	56.0	1	3	292	0.00	29.930 
14:05	80.3	80.3	80.5	44	56.4	1	3	270	0.00	29.930 
14:10	80.3	80.3	80.6	45	57.0	1	2	270	0.00	29.930 
14:15	80.3	80.3	80.7	46	57.6	1	3	315	0.00	29.933 
14:20	79.9	79.9	80.5	48	58.4	1	4	292	0.00	29.933 
14:25	80.3	80.3	80.6	45	57.0	1	3	270	0.00	29.933 
14:30	79.6	79.6	80.1	46	57.0	1	3	292	0.00	29.931 
14:35	79.8	79.8	80.6	50	59.5	1	4	22	0.00	29.931 
14:40	79.9	79.9	80.4	46	57.2	1	5	22	0.00	29.931 
14:45	80.9	80.9	81.0	44	56.9	1	3	315	0.00	29.932 
14:50	81.8	81.8	82.0	46	59.0	1	3	270	0.00	29.932 
14:55	80.5	80.5	80.6	44	56.6	2	4	315	0.00	29.932 
15:00	80.9	80.9	80.9	43	56.3	2	5	292	0.00	29.930 
15:05	81.6	81.6	81.5	43	56.9	1	4	270	0.00	29.930 
15:10	82.2	82.2	82.0	43	57.4	2	5	270	0.00	29.930 
15:15	81.6	81.6	81.3	42	56.3	1	3	315	0.00	29.930 
15:20	81.4	81.4	81.2	42	56.1	1	2	315	0.00	29.930 
15:25	81.6	81.6	81.5	43	56.9	1	3	45	0.00	29.930 
15:30	81.8	81.8	81.3	40	55.1	1	4	315	0.00	29.929 
15:35	82.0	82.0	81.5	40	55.3	1	4	338	0.00	29.929 
15:40	82.0	82.0	81.5	40	55.3	1	3	0	0.00	29.929 
15:45	82.0	82.0	81.5	40	55.3	1	5	22	0.00	29.920 
15:50	82.4	82.4	82.0	42	57.0	2	5	315	0.00	29.920 
15:55	82.6	82.6	82.1	41	56.5	1	4	292	0.00	29.920 
16:00	82.4	82.4	81.7	39	54.9	1	3	315	0.00	29.917 
16:05	82.6	82.6	81.4	35	52.1	1	3	270	0.00	29.917 
16:10	82.6	82.6	81.6	37	53.7	2	4	270	0.00	29.917 
16:15	82.8	82.8	81.9	38	54.6	1	3	248	0.00	29.915 
16:20	82.8	82.8	81.9	38	54.6	1	3	248	0.00	29.915 
16:25	82.6	82.6	81.7	38	54.4	1	3	292	0.00	29.915 
16:30	82.4	82.4	81.7	39	54.9	1	3	315	0.00	29.916 
16:35	82.6	82.6	82.0	40	55.8	1	5	292	0.00	29.916 
16:40	82.6	82.6	82.1	41	56.5	1	4	292	0.00	29.916 
16:45	82.8	82.8	82.0	39	55.3	1	2	315	0.00	29.915 
16:50	82.8	82.8	82.0	39	55.3	1	3	315	0.00	29.915 
16:55	82.6	82.6	82.1	41	56.5	1	4	45	0.00	29.915 
17:00	82.6	82.6	81.8	39	55.1	1	3	292	0.00	29.913 
17:05	82.0	82.0	81.3	39	54.6	1	3	0	0.00	29.913 
17:10	81.6	81.6	81.2	41	55.6	1	3	315	0.00	29.913 
17:15	82.0	82.0	81.6	41	55.9	2	5	292	0.00	29.914 
17:20	82.0	82.0	81.3	39	54.6	1	3	292	0.00	29.914 
17:25	81.8	81.8	81.5	42	56.4	1	2	292	0.00	29.914 
17:30	82.0	82.0	81.8	43	57.3	0	2	315	0.00	29.914 
17:35	82.6	82.6	82.4	43	57.8	0	2	315	0.00	29.914 
17:40	82.0	82.0	81.6	41	55.9	1	3	338	0.00	29.914 
17:45	81.6	81.6	81.2	41	55.6	1	3	248	0.00	29.915 
17:50	81.8	81.8	81.4	41	55.8	2	4	248	0.00	29.915 
17:55	81.6	81.6	81.5	43	56.9	1	3	248	0.00	29.915 
18:00	81.1	81.1	80.9	42	55.8	1	2	292	0.00	29.917 
18:05	80.9	80.9	81.0	44	56.9	0	3	0	0.00	29.917 
18:10	80.9	80.9	80.9	43	56.3	0	2	0	0.00	29.917 
18:15	80.9	80.9	80.9	43	56.3	1	4	315	0.00	29.919 
18:20	81.1	81.1	80.9	42	55.8	1	4	315	0.00	29.919 
18:25	80.9	80.9	80.8	42	55.6	1	3	292	0.00	29.919 
18:30	80.9	80.9	81.1	45	57.5	1	2	248	0.00	29.919 
18:35	80.7	80.7	80.9	45	57.4	1	3	292	0.00	29.919 
18:40	80.7	80.7	80.8	44	56.7	1	3	292	0.00	29.919 
18:45	80.5	80.5	80.7	45	57.2	1	3	270	0.00	29.916 
18:50	80.3	80.3	80.6	45	57.0	1	3	292	0.00	29.916 
18:55	80.1	80.1	80.3	44	56.2	1	2	270	0.00	29.916 
19:00	80.1	80.1	80.4	45	56.8	1	2	292	0.00	29.915 
19:05	79.9	79.9	80.3	45	56.6	1	2	315	0.00	29.915 
19:10	79.9	79.9	80.3	45	56.6	1	2	315	0.00	29.915 
19:15	79.8	79.8	80.3	46	57.2	1	2	248	0.00	29.912 
19:20	79.4	79.4	80.0	46	56.8	1	2	270	0.00	29.912 
19:25	79.4	79.4	80.1	48	58.0	1	3	292	0.00	29.912 
19:30	79.2	79.2	79.8	45	56.0	1	3	292	0.00	29.912 
19:35	79.0	79.0	79.8	47	57.0	1	3	292	0.00	29.912 
19:40	79.0	79.0	79.7	46	56.4	1	3	315	0.00	29.912 
19:45	78.8	78.8	79.6	47	56.8	1	3	292	0.00	29.913 
19:50	78.8	78.8	79.6	47	56.8	1	2	292	0.00	29.913 
19:55	78.6	78.6	79.5	47	56.7	1	2	292	0.00	29.913 
20:00	78.5	78.5	79.5	48	57.2	1	2	292	0.00	29.917 
20:05	78.1	78.1	79.3	49	57.4	0	1	292	0.00	29.917 
20:10	77.7	77.7	79.0	49	57.0	0	1	292	0.00	29.917 
20:15	77.6	77.6	79.0	50	57.5	0	1	292	0.00	29.914 
20:20	77.6	77.6	79.0	50	57.5	0	1	292	0.00	29.914 
20:25	77.4	77.4	78.9	51	57.8	0	1	292	0.00	29.914 
20:30	77.0	77.0	78.6	51	57.5	0	0	---	0.00	29.919 
20:35	76.8	76.8	78.5	53	58.4	0	0	---	0.00	29.919 
20:40	76.7	76.7	78.5	52	57.7	0	1	292	0.00	29.919 
20:45	76.5	76.5	78.4	53	58.1	0	0	---	0.00	29.918 
20:50	76.3	76.3	78.3	54	58.4	0	0	---	0.00	29.918 
20:55	76.0	76.0	78.1	54	58.1	0	0	---	0.00	29.918 
21:00	75.8	75.8	78.0	55	58.5	0	0	---	0.00	29.920 
21:05	75.4	75.4	77.7	55	58.1	0	0	---	0.00	29.920 
21:10	75.1	75.1	77.6	56	58.3	0	0	---	0.00	29.920 
21:15	74.7	74.7	74.7	57	58.4	0	0	---	0.00	29.917 
21:20	74.2	74.2	74.2	58	58.5	0	0	---	0.00	29.917 
21:25	73.9	73.9	73.9	59	58.7	0	0	---	0.00	29.917 
21:30	73.3	73.3	73.3	60	58.6	0	0	---	0.00	29.920 
21:35	72.8	72.8	72.8	61	58.6	0	0	---	0.00	29.920 
21:40	72.5	72.5	72.5	62	58.7	0	0	---	0.00	29.920 
21:45	72.0	72.0	72.0	63	58.7	0	0	---	0.00	29.924 
21:50	71.6	71.6	71.6	64	58.8	0	0	---	0.00	29.924 
21:55	71.3	71.3	71.3	65	58.9	0	0	---	0.00	29.924 
22:00	70.9	70.9	70.9	67	59.4	0	0	---	0.00	29.928 
22:05	70.6	70.6	70.6	67	59.1	0	0	---	0.00	29.928 
22:10	70.1	70.1	70.1	68	59.0	0	0	---	0.00	29.928 
22:15	69.8	69.8	69.8	69	59.2	0	0	---	0.00	29.928 
22:20	69.6	69.6	69.6	69	59.0	0	0	---	0.00	29.928 
22:25	69.3	69.3	69.3	70	59.1	0	0	---	0.00	29.928 
22:30	69.1	69.1	69.1	71	59.3	0	0	---	0.00	29.932 
22:35	68.9	68.9	68.9	71	59.1	0	0	---	0.00	29.932 
22:40	68.6	68.6	68.6	72	59.2	0	0	---	0.00	29.932 
22:45	68.4	68.4	68.4	72	59.0	0	0	---	0.00	29.931 
22:50	68.3	68.3	68.3	72	58.9	0	0	---	0.00	29.931 
22:55	68.1	68.1	68.1	73	59.1	0	0	---	0.00	29.931 
23:00	67.9	67.9	67.9	73	58.9	0	0	---	0.00	29.929 
23:05	67.8	67.8	67.8	75	59.6	0	0	---	0.00	29.929 
23:10	67.6	67.6	67.6	75	59.4	0	0	---	0.00	29.929 
23:15	67.4	67.4	67.4	75	59.2	0	0	---	0.00	29.931 
23:20	67.3	67.3	67.3	75	59.1	0	0	---	0.00	29.931 
23:25	67.3	67.3	67.3	76	59.5	0	0	---	0.00	29.931 
23:30	67.3	67.3	67.3	76	59.5	0	0	---	0.00	29.934 
23:35	67.1	67.1	67.1	77	59.6	0	0	---	0.00	29.934 
23:40	67.1	67.1	67.1	77	59.6	0	0	---	0.00	29.934 
23:45	66.9	66.9	66.9	77	59.4	0	0	---	0.00	29.936 
23:50	66.9	66.9	66.9	78	59.8	0	0	---	0.00	29.936 
23:55	66.8	66.8	66.8	78	59.7	0	0	---	0.00	29.936 

CoCoRaHS
IN-AL-39
A2 Web Hosting
Creative Commons License
GoDaddy
Look for:

loaded 2017-10-19 12:18:20 • last modified 2010-11-18 10:43:29
Privacy PolicyDisclaimer
• wx.awcolley.com is powered by PmWiki v.2002016 •
• all content (unless otherwise noted) © 2017 A W Colley